createdAt,value
2023-02-11T00:00:25.749Z,33.17
2023-02-11T00:02:53.315Z,34.45
2023-02-11T00:05:20.872Z,32.50
2023-02-11T00:07:48.457Z,31.20
2023-02-11T00:10:16.025Z,31.70
2023-02-11T00:12:43.659Z,31.15
2023-02-11T00:15:11.394Z,32.60
2023-02-11T00:17:38.947Z,33.53
2023-02-11T00:20:08.309Z,32.90
2023-02-11T00:22:35.941Z,26.80
2023-02-11T00:25:03.671Z,30.08
2023-02-11T00:27:31.344Z,30.13
2023-02-11T00:30:02.168Z,31.38
2023-02-11T00:32:31.604Z,31.50
2023-02-11T00:34:59.232Z,31.88
2023-02-11T00:37:26.832Z,30.88
2023-02-11T00:39:54.504Z,35.25
2023-02-11T00:42:22.073Z,29.15
2023-02-11T00:44:49.669Z,27.88
2023-02-11T00:47:17.831Z,29.23
2023-02-11T00:49:45.433Z,27.33
2023-02-11T00:52:13.108Z,27.83
2023-02-11T00:54:44.993Z,28.58
2023-02-11T00:57:12.653Z,26.10
2023-02-11T00:59:41.318Z,30.23
2023-02-11T01:02:08.938Z,26.83
2023-02-11T01:04:37.531Z,27.77
2023-02-11T01:07:05.155Z,35.22
2023-02-11T01:09:32.705Z,28.40
2023-02-11T01:12:00.315Z,31.45
2023-02-11T01:14:27.902Z,23.88
2023-02-11T01:16:55.490Z,29.02
2023-02-11T01:19:23.125Z,28.80
2023-02-11T01:21:50.713Z,30.33
2023-02-11T01:24:22.658Z,26.42
2023-02-11T01:26:50.294Z,26.95
2023-02-11T01:29:17.901Z,24.35
2023-02-11T01:31:45.502Z,29.90
2023-02-11T01:34:13.091Z,25.67
2023-02-11T01:36:40.852Z,25.13
2023-02-11T01:39:08.847Z,24.83
2023-02-11T01:41:36.729Z,25.75
2023-02-11T01:44:23.937Z,25.15
2023-02-11T01:46:51.649Z,24.67
2023-02-11T01:49:23.330Z,28.30
2023-02-11T01:52:14.395Z,25.43
2023-02-11T01:55:05.851Z,28.10
2023-02-11T01:57:35.351Z,23.92
2023-02-11T02:00:22.364Z,27.00
2023-02-11T02:02:57.550Z,27.40
2023-02-11T02:05:26.095Z,23.95
2023-02-11T02:07:53.628Z,24.23
2023-02-11T02:10:22.826Z,24.60
2023-02-11T02:12:50.406Z,24.63
2023-02-11T02:15:23.050Z,22.30
2023-02-11T02:17:57.720Z,23.75
2023-02-11T02:20:25.279Z,21.45
2023-02-11T02:23:12.388Z,22.27
2023-02-11T02:25:46.044Z,24.85
2023-02-11T02:28:20.741Z,27.05
2023-02-11T02:30:57.551Z,26.20
2023-02-11T02:33:30.398Z,27.75
2023-02-11T02:36:33.543Z,26.58
2023-02-11T02:39:11.543Z,22.38
2023-02-11T02:41:39.727Z,23.17
2023-02-11T02:44:08.224Z,24.27
2023-02-11T02:46:36.246Z,22.30
2023-02-11T02:49:04.211Z,21.20
2023-02-11T02:51:44.032Z,22.52
2023-02-11T02:54:33.948Z,23.42
2023-02-11T02:57:20.287Z,25.58
2023-02-11T03:00:03.168Z,17.77
2023-02-11T03:02:49.978Z,20.70
2023-02-11T03:05:20.168Z,17.58
2023-02-11T03:07:59.605Z,16.98
2023-02-11T03:10:28.889Z,18.83
2023-02-11T03:12:57.153Z,19.95
2023-02-11T03:15:26.183Z,19.58
2023-02-11T03:17:55.231Z,16.27
2023-02-11T03:20:23.710Z,17.42
2023-02-11T03:22:51.264Z,18.23
2023-02-11T03:25:19.595Z,20.90
2023-02-11T03:27:49.440Z,17.42
2023-02-11T03:30:19.881Z,15.88
2023-02-11T03:32:52.724Z,19.20
2023-02-11T03:35:49.993Z,22.85
2023-02-11T03:38:23.455Z,15.48
2023-02-11T03:40:51.147Z,18.20
2023-02-11T03:43:21.095Z,20.58
2023-02-11T03:45:50.305Z,14.82
2023-02-11T03:48:24.324Z,16.38
2023-02-11T03:50:52.621Z,16.77
2023-02-11T03:53:21.315Z,13.88
2023-02-11T03:55:50.592Z,17.55
2023-02-11T03:58:19.398Z,17.63
2023-02-11T04:00:47.092Z,15.80
2023-02-11T04:03:14.767Z,14.80
2023-02-11T04:05:42.360Z,15.00
2023-02-11T04:08:09.938Z,12.65
2023-02-11T04:10:37.672Z,16.52
2023-02-11T04:13:05.256Z,13.02
2023-02-11T04:15:33.014Z,16.17
2023-02-11T04:18:00.634Z,15.80
2023-02-11T04:20:28.187Z,16.20
2023-02-11T04:22:55.810Z,15.38
2023-02-11T04:25:23.397Z,13.50
2023-02-11T04:27:50.958Z,16.27
2023-02-11T04:30:18.558Z,19.25
2023-02-11T04:32:46.125Z,16.30
2023-02-11T04:35:13.728Z,14.82
2023-02-11T04:37:41.298Z,15.32
2023-02-11T04:40:09.199Z,15.23
2023-02-11T04:42:36.753Z,17.20
2023-02-11T04:45:04.576Z,15.82
2023-02-11T04:47:32.140Z,15.25
2023-02-11T04:49:59.689Z,13.63
2023-02-11T04:52:27.312Z,15.68
2023-02-11T04:54:54.861Z,15.75
2023-02-11T04:57:22.500Z,13.77
2023-02-11T04:59:50.050Z,16.00
2023-02-11T05:02:17.634Z,14.25
2023-02-11T05:04:45.266Z,14.52
2023-02-11T05:07:12.988Z,13.15
2023-02-11T05:09:40.568Z,13.50
2023-02-11T05:12:08.236Z,14.52
2023-02-11T05:14:35.881Z,13.10
2023-02-11T05:17:03.590Z,15.60
2023-02-11T05:19:31.953Z,15.68
2023-02-11T05:22:03.195Z,14.65
2023-02-11T05:24:33.919Z,13.75
2023-02-11T05:27:01.710Z,15.00
2023-02-11T05:29:29.458Z,15.40
2023-02-11T05:31:56.982Z,17.85
2023-02-11T05:34:24.538Z,16.17
2023-02-11T05:36:54.242Z,14.90
2023-02-11T05:39:21.878Z,14.77
2023-02-11T05:41:49.436Z,15.40
2023-02-11T05:44:17.032Z,15.93
2023-02-11T05:46:44.741Z,13.95
2023-02-11T05:49:12.477Z,15.65
2023-02-11T05:51:41.070Z,14.68
2023-02-11T05:54:08.693Z,13.80
2023-02-11T05:56:36.266Z,14.13
2023-02-11T05:59:03.904Z,15.05
2023-02-11T06:01:31.551Z,12.85
2023-02-11T06:03:59.147Z,13.35
2023-02-11T06:06:26.744Z,17.00
2023-02-11T06:08:54.301Z,11.50
2023-02-11T06:11:21.860Z,14.45
2023-02-11T06:13:49.931Z,12.00
2023-02-11T06:16:17.543Z,12.30
2023-02-11T06:18:45.147Z,13.10
2023-02-11T06:21:12.797Z,14.43
2023-02-11T06:23:40.413Z,14.10
2023-02-11T06:26:08.764Z,17.17
2023-02-11T06:28:38.707Z,12.63
2023-02-11T06:31:08.173Z,12.40
2023-02-11T06:33:36.117Z,13.82
2023-02-11T06:36:04.792Z,13.25
2023-02-11T06:38:33.486Z,12.45
2023-02-11T06:41:01.145Z,14.13
2023-02-11T06:43:28.711Z,12.00
2023-02-11T06:45:56.840Z,13.25
2023-02-11T06:48:24.451Z,12.30
2023-02-11T06:50:52.082Z,13.88
2023-02-11T06:53:19.629Z,11.63
2023-02-11T06:55:47.186Z,13.52
2023-02-11T06:58:14.811Z,12.65
2023-02-11T07:00:42.402Z,14.80
2023-02-11T07:03:09.998Z,20.13
2023-02-11T07:05:38.654Z,13.40
2023-02-11T07:08:06.275Z,13.05
2023-02-11T07:10:34.574Z,13.02
2023-02-11T07:13:02.170Z,14.13
2023-02-11T07:15:29.752Z,12.63
2023-02-11T07:17:57.325Z,14.00
2023-02-11T07:20:25.000Z,15.55
2023-02-11T07:22:52.612Z,12.15
2023-02-11T07:25:20.193Z,11.52
2023-02-11T07:27:47.787Z,12.15
2023-02-11T07:30:15.668Z,13.02
2023-02-11T07:32:43.230Z,8.95
2023-02-11T07:35:10.777Z,10.93
2023-02-11T07:37:38.311Z,13.40
2023-02-11T07:40:07.517Z,12.13
2023-02-11T07:42:35.760Z,10.80
2023-02-11T07:45:03.363Z,11.48
2023-02-11T07:47:31.048Z,15.75
2023-02-11T07:49:59.606Z,12.20
2023-02-11T07:52:30.153Z,10.75
2023-02-11T07:54:57.905Z,10.65
2023-02-11T07:57:25.540Z,14.02
2023-02-11T07:59:53.790Z,10.00
2023-02-11T08:02:21.384Z,11.82
2023-02-11T08:04:49.110Z,10.15
2023-02-11T08:07:17.437Z,10.75
2023-02-11T08:09:45.258Z,12.18
2023-02-11T08:12:12.838Z,10.73
2023-02-11T08:14:40.445Z,13.80
2023-02-11T08:17:07.976Z,14.13
2023-02-11T08:19:35.574Z,12.55
2023-02-11T08:22:03.194Z,11.15
2023-02-11T08:24:30.779Z,12.23
2023-02-11T08:26:58.350Z,12.50
2023-02-11T08:29:25.902Z,12.80
2023-02-11T08:31:53.494Z,12.60
2023-02-11T08:34:21.938Z,12.35
2023-02-11T08:36:49.719Z,12.35
2023-02-11T08:39:20.466Z,14.70
2023-02-11T08:41:53.288Z,11.50
2023-02-11T08:44:21.513Z,15.43
2023-02-11T08:46:49.486Z,13.35
2023-02-11T08:49:17.053Z,17.33
2023-02-11T08:51:45.089Z,12.40
2023-02-11T08:54:13.230Z,16.83
2023-02-11T08:56:40.817Z,16.55
2023-02-11T08:59:09.279Z,13.50
2023-02-11T09:01:37.127Z,15.43
2023-02-11T09:04:04.800Z,13.90
2023-02-11T09:06:32.636Z,14.40
2023-02-11T09:09:00.346Z,15.30
2023-02-11T09:11:29.905Z,15.05
2023-02-11T09:13:57.794Z,18.83
2023-02-11T09:16:26.996Z,18.60
2023-02-11T09:18:56.561Z,16.42
2023-02-11T09:21:24.104Z,20.52
2023-02-11T09:23:51.658Z,21.17
2023-02-11T09:26:27.166Z,18.77
2023-02-11T09:28:55.002Z,19.02
2023-02-11T09:31:25.745Z,17.08
2023-02-11T09:33:54.639Z,18.30
2023-02-11T09:36:23.770Z,17.30
2023-02-11T09:38:51.941Z,15.55
2023-02-11T09:41:22.262Z,15.13
2023-02-11T09:43:51.752Z,18.25
2023-02-11T09:46:21.092Z,19.95
2023-02-11T09:48:49.834Z,17.85
2023-02-11T09:51:20.721Z,14.45
2023-02-11T09:53:51.710Z,15.07
2023-02-11T09:56:19.265Z,21.00
2023-02-11T09:58:47.200Z,17.58
2023-02-11T10:01:21.812Z,16.08
2023-02-11T10:04:05.006Z,16.00
2023-02-11T10:06:32.635Z,15.25
2023-02-11T10:09:00.201Z,16.85
2023-02-11T10:11:34.729Z,16.52
2023-02-11T10:14:25.650Z,17.42
2023-02-11T10:17:13.450Z,22.45
2023-02-11T10:19:50.953Z,20.55
2023-02-11T10:22:18.683Z,21.38
2023-02-11T10:24:54.665Z,19.23
2023-02-11T10:27:25.147Z,20.95
2023-02-11T10:29:57.531Z,20.38
2023-02-11T10:32:32.524Z,18.40
2023-02-11T10:35:03.085Z,22.13
2023-02-11T10:37:31.143Z,23.52
2023-02-11T10:39:58.795Z,21.35
2023-02-11T10:42:27.054Z,19.70
2023-02-11T10:44:58.317Z,17.95
2023-02-11T10:47:28.203Z,23.10
2023-02-11T10:49:55.801Z,18.33
2023-02-11T10:52:24.876Z,20.13
2023-02-11T10:55:07.052Z,20.83
2023-02-11T10:57:36.403Z,19.77
2023-02-11T11:00:18.977Z,20.02
2023-02-11T11:02:46.784Z,18.25
2023-02-11T11:05:18.639Z,23.65
2023-02-11T11:10:31.130Z,21.38
2023-02-11T11:12:58.730Z,18.10
2023-02-11T11:15:27.782Z,19.98
2023-02-11T11:18:21.390Z,21.75
2023-02-11T11:21:13.108Z,21.42
2023-02-11T11:23:41.292Z,17.52
2023-02-11T11:26:16.929Z,18.80
2023-02-11T11:28:50.373Z,18.75
2023-02-11T11:31:19.881Z,20.38
2023-02-11T11:33:48.109Z,23.40
2023-02-11T11:36:21.844Z,17.85
2023-02-11T11:38:51.607Z,17.25
2023-02-11T11:41:19.230Z,19.55
2023-02-11T11:44:00.438Z,19.92
2023-02-11T11:46:39.459Z,15.60
2023-02-11T11:49:27.659Z,19.60
2023-02-11T11:52:08.422Z,20.23
2023-02-11T11:54:37.373Z,22.92
2023-02-11T11:57:14.319Z,17.85
2023-02-11T11:59:42.052Z,18.88
2023-02-11T12:02:27.087Z,18.48
2023-02-11T12:04:59.038Z,17.38
2023-02-11T12:10:23.218Z,16.67
2023-02-11T12:12:56.653Z,18.23
2023-02-11T12:15:32.659Z,17.80
2023-02-11T12:18:00.163Z,16.88
2023-02-11T12:20:30.861Z,18.25
2023-02-11T12:23:05.868Z,17.50
2023-02-11T12:25:56.766Z,16.95
2023-02-11T12:28:30.152Z,16.27
2023-02-11T12:31:06.063Z,16.45
2023-02-11T12:33:52.691Z,24.00
2023-02-11T12:36:35.226Z,14.65
2023-02-11T12:39:16.251Z,19.60
2023-02-11T12:42:17.880Z,16.15
2023-02-11T12:44:51.704Z,15.88
2023-02-11T12:47:35.690Z,19.80
2023-02-11T12:50:23.763Z,18.65
2023-02-11T12:53:06.797Z,19.42
2023-02-11T12:55:37.241Z,17.60
2023-02-11T12:58:06.486Z,17.52
2023-02-11T13:00:54.565Z,20.52
2023-02-11T13:03:26.403Z,16.83
2023-02-11T13:05:55.933Z,19.13
2023-02-11T13:08:28.513Z,16.85
2023-02-11T13:10:58.490Z,19.33
2023-02-11T13:13:28.200Z,17.63
2023-02-11T13:16:00.300Z,17.90
2023-02-11T13:18:36.986Z,19.85
2023-02-11T13:21:19.675Z,16.70
2023-02-11T13:23:58.090Z,22.73
2023-02-11T13:26:38.408Z,16.88
2023-02-11T13:29:29.777Z,17.63
2023-02-11T13:32:12.958Z,16.15
2023-02-11T13:34:43.225Z,18.67
2023-02-11T13:37:27.449Z,16.05
2023-02-11T13:40:02.546Z,16.42
2023-02-11T13:42:49.553Z,16.25
2023-02-11T13:45:18.467Z,13.55
2023-02-11T13:47:47.749Z,14.60
2023-02-11T13:50:31.241Z,18.50
2023-02-11T13:53:02.608Z,19.73
2023-02-11T13:55:30.539Z,16.48
2023-02-11T13:58:10.723Z,16.83
2023-02-11T14:00:38.237Z,16.27
2023-02-11T14:03:30.420Z,12.02
2023-02-11T14:08:59.743Z,15.35
2023-02-11T14:11:33.928Z,13.45
2023-02-11T14:14:15.715Z,17.17
2023-02-11T14:17:08.248Z,15.27
2023-02-11T14:19:40.683Z,21.38
2023-02-11T14:24:36.742Z,15.05
2023-02-11T14:27:07.197Z,16.00
2023-02-11T14:29:47.351Z,16.67
2023-02-11T14:32:33.992Z,16.05
2023-02-11T14:35:10.704Z,14.40
2023-02-11T14:37:56.546Z,17.13
2023-02-11T14:40:28.346Z,18.80
2023-02-11T14:42:56.438Z,18.25
2023-02-11T14:45:26.464Z,17.95
2023-02-11T14:47:54.020Z,19.95
2023-02-11T14:50:41.871Z,21.45
2023-02-11T14:53:13.866Z,18.00
2023-02-11T14:55:43.605Z,19.58
2023-02-11T14:58:14.199Z,19.95
2023-02-11T15:00:54.237Z,20.63
2023-02-11T15:03:33.010Z,20.65
2023-02-11T15:06:02.557Z,19.33
2023-02-11T15:08:30.872Z,22.08
2023-02-11T15:11:01.641Z,19.00
2023-02-11T15:13:31.069Z,23.70
2023-02-11T15:16:01.993Z,21.98
2023-02-11T15:18:33.429Z,26.27
2023-02-11T15:21:01.151Z,23.00
2023-02-11T15:23:29.974Z,22.00
2023-02-11T15:25:57.748Z,22.70
2023-02-11T15:28:35.064Z,19.80
2023-02-11T15:31:06.666Z,28.00
2023-02-11T15:33:34.270Z,25.27
2023-02-11T15:36:03.038Z,27.33
2023-02-11T15:38:30.830Z,25.15
2023-02-11T15:41:00.765Z,23.83
2023-02-11T15:43:54.141Z,22.77
2023-02-11T15:46:22.552Z,26.67
2023-02-11T15:48:50.111Z,22.17
2023-02-11T15:51:25.344Z,26.55
2023-02-11T15:53:56.683Z,26.02
2023-02-11T15:56:25.858Z,22.25
2023-02-11T15:58:55.949Z,24.23
2023-02-11T16:01:33.894Z,24.48
2023-02-11T16:04:02.043Z,24.02
2023-02-11T16:06:39.178Z,23.77
2023-02-11T16:09:06.724Z,25.90
2023-02-11T16:11:35.642Z,23.95
2023-02-11T16:14:06.647Z,25.48
2023-02-11T16:16:35.354Z,23.45
2023-02-11T16:19:05.781Z,25.42
2023-02-11T16:21:39.015Z,26.00
2023-02-11T16:24:08.615Z,24.48
2023-02-11T16:26:42.938Z,25.85
2023-02-11T16:29:15.054Z,20.70
2023-02-11T16:31:43.842Z,26.35
2023-02-11T16:34:22.611Z,26.00
2023-02-11T16:36:51.297Z,25.55
2023-02-11T16:39:21.500Z,23.63
2023-02-11T16:41:50.662Z,25.42
2023-02-11T16:44:18.405Z,25.55
2023-02-11T16:46:46.528Z,23.70
2023-02-11T16:49:19.993Z,30.45
2023-02-11T16:51:49.369Z,27.70
2023-02-11T16:54:18.188Z,25.83
2023-02-11T16:56:46.048Z,23.98
2023-02-11T16:59:13.695Z,29.10
2023-02-11T17:01:42.461Z,28.35
2023-02-11T17:04:25.131Z,24.33
2023-02-11T17:06:52.972Z,27.30
2023-02-11T17:09:31.109Z,27.85
2023-02-11T17:11:58.886Z,26.40
2023-02-11T17:14:26.620Z,30.40
2023-02-11T17:16:54.148Z,28.65
2023-02-11T17:19:21.898Z,28.48
2023-02-11T17:21:50.813Z,28.70
2023-02-11T17:24:20.201Z,29.55
2023-02-11T17:26:47.779Z,35.78
2023-02-11T17:29:18.082Z,26.35
2023-02-11T17:31:45.768Z,28.48
2023-02-11T17:34:13.445Z,29.67
2023-02-11T17:36:43.811Z,27.77
2023-02-11T17:39:11.903Z,28.52
2023-02-11T17:41:39.843Z,26.75
2023-02-11T17:44:12.195Z,28.15
2023-02-11T17:46:39.840Z,32.35
2023-02-11T17:49:07.418Z,30.70
2023-02-11T17:51:37.189Z,29.98
2023-02-11T17:54:06.098Z,29.15
2023-02-11T17:56:34.751Z,29.17
2023-02-11T17:59:02.852Z,30.35
2023-02-11T18:01:31.228Z,28.20
2023-02-11T18:03:58.946Z,25.17
2023-02-11T18:06:26.527Z,23.65
2023-02-11T18:08:58.007Z,55.65
2023-02-11T18:11:25.907Z,66.00
2023-02-11T18:13:54.561Z,24.08
2023-02-11T18:16:22.769Z,27.92
2023-02-11T18:18:50.857Z,26.50
2023-02-11T18:21:20.381Z,27.40
2023-02-11T18:23:48.193Z,25.20
2023-02-11T18:26:16.585Z,24.60
2023-02-11T18:28:46.002Z,27.77
2023-02-11T18:31:14.478Z,29.98
2023-02-11T18:33:42.450Z,24.75
2023-02-11T18:36:11.628Z,21.48
2023-02-11T18:38:39.313Z,26.00
2023-02-11T18:41:07.421Z,26.17
2023-02-11T18:43:35.620Z,25.10
2023-02-11T18:46:06.968Z,31.25
2023-02-11T18:48:34.806Z,27.05
2023-02-11T18:51:02.355Z,28.52
2023-02-11T18:53:29.961Z,31.80
2023-02-11T18:55:57.518Z,28.35
2023-02-11T18:58:25.054Z,26.92
2023-02-11T19:00:52.675Z,25.13
2023-02-11T19:03:20.348Z,33.20
2023-02-11T19:05:49.227Z,37.13
2023-02-11T19:08:17.469Z,26.13
2023-02-11T19:10:46.322Z,31.58
2023-02-11T19:13:14.727Z,38.53
2023-02-11T19:15:43.115Z,30.50
2023-02-11T19:18:11.376Z,32.78
2023-02-11T19:20:44.020Z,33.78
2023-02-11T19:23:11.778Z,31.35
2023-02-11T19:25:45.160Z,33.83
2023-02-11T19:28:13.142Z,35.63
2023-02-11T19:30:40.955Z,46.78
2023-02-11T19:33:10.235Z,42.58
2023-02-11T19:35:37.945Z,32.70
2023-02-11T19:38:05.904Z,32.30
2023-02-11T19:40:33.574Z,28.92
2023-02-11T19:43:01.122Z,31.58
2023-02-11T19:45:28.757Z,33.92
2023-02-11T19:47:56.781Z,39.20
2023-02-11T19:50:24.783Z,42.00
2023-02-11T19:52:52.316Z,50.97
2023-02-11T19:55:19.900Z,42.38
2023-02-11T19:57:47.468Z,38.63
2023-02-11T20:00:15.241Z,40.33
2023-02-11T20:02:42.865Z,31.77
2023-02-11T20:05:10.469Z,29.90
2023-02-11T20:07:38.099Z,33.03
2023-02-11T20:10:05.997Z,32.33
2023-02-11T20:12:33.542Z,31.52
2023-02-11T20:15:01.166Z,34.42
2023-02-11T20:17:28.816Z,49.88
2023-02-11T20:19:56.359Z,36.22
2023-02-11T20:22:23.923Z,31.83
2023-02-11T20:24:51.574Z,32.53
2023-02-11T20:27:20.190Z,31.42
2023-02-11T20:29:47.816Z,56.15
2023-02-11T20:32:15.484Z,43.45
2023-02-11T20:34:43.044Z,35.08
2023-02-11T20:37:10.703Z,33.60
2023-02-11T20:39:40.874Z,35.78
2023-02-11T20:42:12.088Z,36.53
2023-02-11T20:44:39.708Z,40.67
2023-02-11T20:47:07.549Z,29.67
2023-02-11T20:49:35.118Z,33.22
2023-02-11T20:52:02.712Z,68.50
2023-02-11T20:54:30.437Z,32.35
2023-02-11T20:56:58.232Z,30.40
2023-02-11T20:59:26.411Z,66.03
2023-02-11T21:01:55.967Z,38.60
2023-02-11T21:04:25.299Z,36.35
2023-02-11T21:06:54.945Z,34.30
2023-02-11T21:09:24.241Z,57.00
2023-02-11T21:11:52.540Z,38.42
2023-02-11T21:14:22.141Z,64.47
2023-02-11T21:16:49.922Z,42.05
2023-02-11T21:19:17.543Z,52.13
2023-02-11T21:21:45.434Z,38.28
2023-02-11T21:24:13.404Z,33.60
2023-02-11T21:26:41.121Z,56.03
2023-02-11T21:29:08.980Z,47.72
2023-02-11T21:31:37.319Z,41.05
2023-02-11T21:34:05.904Z,34.10
2023-02-11T21:36:33.808Z,39.55
2023-02-11T21:39:03.653Z,37.28
2023-02-11T21:41:31.259Z,35.70
2023-02-11T21:43:59.193Z,31.27
2023-02-11T21:46:26.968Z,33.65
2023-02-11T21:48:54.591Z,32.30
2023-02-11T21:51:23.512Z,29.95
2023-02-11T21:54:01.326Z,29.58
2023-02-11T21:56:30.186Z,31.95
2023-02-11T21:58:59.196Z,31.55
2023-02-11T22:01:28.343Z,30.42
2023-02-11T22:03:56.363Z,30.88
2023-02-11T22:06:30.755Z,31.05
2023-02-11T22:08:58.755Z,32.53
2023-02-11T22:11:26.449Z,32.65
2023-02-11T22:13:58.825Z,33.90
2023-02-11T22:16:27.093Z,28.83
2023-02-11T22:18:56.738Z,30.98
2023-02-11T22:21:24.481Z,34.22
2023-02-11T22:23:52.406Z,31.02
2023-02-11T22:26:21.742Z,30.20
2023-02-11T22:28:49.868Z,42.13
2023-02-11T22:31:19.401Z,28.08
2023-02-11T22:33:47.190Z,28.98
2023-02-11T22:36:22.168Z,29.42
2023-02-11T22:38:49.867Z,27.42
2023-02-11T22:41:17.882Z,30.23
2023-02-11T22:43:45.554Z,27.92
2023-02-11T22:46:15.767Z,45.67
2023-02-11T22:48:43.528Z,30.08
2023-02-11T22:51:12.696Z,26.52
2023-02-11T22:53:40.352Z,25.95
2023-02-11T22:56:09.389Z,27.33
2023-02-11T22:58:37.068Z,27.23
2023-02-11T23:01:05.289Z,31.88
2023-02-11T23:03:33.653Z,30.70
2023-02-11T23:06:01.613Z,27.95
2023-02-11T23:08:30.501Z,26.17
2023-02-11T23:11:04.297Z,27.30
2023-02-11T23:13:31.955Z,28.63
2023-02-11T23:15:59.626Z,30.23
2023-02-11T23:18:27.195Z,29.98
2023-02-11T23:20:54.813Z,26.15
2023-02-11T23:23:22.458Z,25.33
2023-02-11T23:25:50.004Z,29.17
2023-02-11T23:28:17.600Z,33.38
2023-02-11T23:30:45.274Z,28.80
2023-02-11T23:33:13.309Z,27.17
2023-02-11T23:35:40.845Z,31.75
2023-02-11T23:38:08.405Z,26.67
2023-02-11T23:40:35.977Z,29.20
2023-02-11T23:43:03.748Z,25.65
2023-02-11T23:45:31.576Z,30.35
2023-02-11T23:47:59.174Z,29.92
2023-02-11T23:50:26.724Z,28.10
2023-02-11T23:52:54.701Z,29.98
2023-02-11T23:55:22.291Z,25.40
2023-02-11T23:57:49.892Z,32.25
